Time;durP1;ratioP1;P1;durP2;ratioP2;P2;SDS_P1;SDS_P2;PMS_P1;PMS_P2;Temp;Humidity;BMP_temperature;BMP_pressure;BME280_temperature;BME280_humidity;BME280_pressure;Samples;Min_cycle;Max_cycle;Signal;HPM_P1;HPM_P2
2022/05/01 00:00:49;;;;;;;16.75;8.65;;;9.70;99.90;;;;;;4991158;28;20047;-90
2022/05/01 00:06:03;;;;;;;13.55;8.70;;;9.70;99.90;;;;;;4991533;28;20078;-90
2022/05/01 00:08:30;;;;;;;13.65;8.77;;;9.70;99.90;;;;;;4991335;28;20499;-90
2022/05/01 00:10:56;;;;;;;14.38;8.50;;;9.70;99.90;;;;;;4990935;28;20042;-91
2022/05/01 00:13:23;;;;;;;16.15;10.13;;;9.70;99.90;;;;;;4991150;28;20050;-90
2022/05/01 00:15:49;;;;;;;15.02;8.63;;;9.60;99.90;;;;;;4991522;28;20057;-90
2022/05/01 00:18:15;;;;;;;14.00;8.82;;;9.60;99.90;;;;;;4991182;28;20046;-91
2022/05/01 00:20:41;;;;;;;13.95;7.78;;;9.60;99.90;;;;;;4991319;28;20030;-90
2022/05/01 00:23:07;;;;;;;14.15;8.68;;;9.60;99.90;;;;;;4991284;28;20045;-91
2022/05/01 00:25:32;;;;;;;14.02;8.40;;;9.60;99.90;;;;;;4991511;28;20057;-91
2022/05/01 00:27:58;;;;;;;14.27;8.48;;;9.60;99.90;;;;;;4991653;28;20042;-90
2022/05/01 00:30:26;;;;;;;14.10;9.57;;;9.60;99.90;;;;;;4990929;28;20515;-90
2022/05/01 00:38:24;;;;;;;15.10;9.13;;;9.50;99.90;;;;;;4991312;28;20050;-90
2022/05/01 00:40:50;;;;;;;15.45;9.07;;;9.50;99.90;;;;;;4974621;28;20191;-90
2022/05/01 00:43:16;;;;;;;12.50;8.10;;;9.50;99.90;;;;;;4991027;28;20042;-90
2022/05/01 00:45:42;;;;;;;13.35;7.93;;;9.50;99.90;;;;;;4991132;28;20042;-90
2022/05/01 00:48:08;;;;;;;13.00;8.48;;;9.40;99.90;;;;;;4991295;28;20414;-90
2022/05/01 00:50:34;;;;;;;12.55;7.93;;;9.40;99.90;;;;;;4990973;28;20500;-91
2022/05/01 00:53:01;;;;;;;13.02;8.13;;;9.40;99.90;;;;;;4990843;28;20042;-91
2022/05/01 00:55:27;;;;;;;13.02;7.40;;;9.30;99.90;;;;;;4991006;28;20125;-91
2022/05/01 00:57:53;;;;;;;11.70;7.10;;;9.30;99.90;;;;;;4991079;28;20493;-90
2022/05/01 01:00:19;;;;;;;11.98;7.18;;;9.30;99.90;;;;;;4990855;28;20053;-90
2022/05/01 01:02:48;;;;;;;12.57;7.88;;;9.30;99.90;;;;;;4991895;28;20046;-90
2022/05/01 01:05:14;;;;;;;16.08;8.43;;;9.20;99.90;;;;;;4994807;28;20050;-90
2022/05/01 01:07:40;;;;;;;14.20;8.50;;;9.20;99.90;;;;;;4994722;28;20038;-90
2022/05/01 01:10:06;;;;;;;12.52;7.97;;;9.20;99.90;;;;;;4994174;28;20049;-91
2022/05/01 01:15:16;;;;;;;13.23;8.30;;;9.20;99.90;;;;;;4994298;28;20500;-90
2022/05/01 01:17:46;;;;;;;12.90;8.30;;;9.20;99.90;;;;;;4994229;28;20042;-90
2022/05/01 01:20:13;;;;;;;13.25;7.85;;;9.20;99.90;;;;;;4994337;28;20504;-90
2022/05/01 01:22:39;;;;;;;14.32;8.38;;;9.20;99.90;;;;;;4994739;28;20046;-90
2022/05/01 01:25:11;;;;;;;14.50;7.40;;;9.20;99.90;;;;;;4993318;28;20089;-91
2022/05/01 01:27:41;;;;;;;14.57;8.15;;;9.20;99.90;;;;;;4994093;28;20071;-90
2022/05/01 01:32:53;;;;;;;14.52;8.75;;;9.20;99.90;;;;;;4993805;28;20050;-89
2022/05/01 01:35:22;;;;;;;12.48;8.15;;;9.20;99.90;;;;;;4994115;28;20069;-90
2022/05/01 01:37:49;;;;;;;14.15;8.75;;;9.20;99.90;;;;;;4994227;28;20038;-90
2022/05/01 01:40:23;;;;;;;13.48;8.55;;;9.20;99.90;;;;;;4993860;28;20502;-91
2022/05/01 01:42:54;;;;;;;14.88;8.73;;;9.20;99.90;;;;;;4977578;28;20045;-90
2022/05/01 01:45:20;;;;;;;13.23;8.65;;;9.10;99.90;;;;;;4994001;28;20034;-90
2022/05/01 01:47:49;;;;;;;16.98;8.65;;;9.20;99.90;;;;;;4993957;28;20050;-90
2022/05/01 01:50:17;;;;;;;13.77;8.95;;;9.20;99.90;;;;;;4977509;28;20049;-90
2022/05/01 01:52:46;;;;;;;14.27;9.52;;;9.20;99.90;;;;;;4993511;28;20046;-91
2022/05/01 01:55:14;;;;;;;16.23;9.45;;;9.10;99.90;;;;;;4993629;28;20474;-90
2022/05/01 01:57:40;;;;;;;16.33;9.55;;;9.10;99.90;;;;;;4993988;28;20049;-90
2022/05/01 02:00:06;;;;;;;16.88;11.27;;;9.20;99.90;;;;;;4993327;28;20038;-90
2022/05/01 02:02:32;;;;;;;15.60;10.88;;;9.20;99.90;;;;;;4993628;28;20424;-90
2022/05/01 02:04:58;;;;;;;15.55;11.13;;;9.20;99.90;;;;;;4993720;28;20045;-90
2022/05/01 02:07:23;;;;;;;16.15;10.60;;;9.20;99.90;;;;;;4977480;28;20500;-91
2022/05/01 02:09:49;;;;;;;15.88;9.60;;;9.20;99.90;;;;;;4977206;28;20049;-91
2022/05/01 02:12:14;;;;;;;14.50;9.73;;;9.10;99.90;;;;;;4993354;28;20129;-90
2022/05/01 02:14:40;;;;;;;18.73;11.30;;;9.10;99.90;;;;;;4992817;28;20126;-90
2022/05/01 02:17:05;;;;;;;16.73;10.40;;;9.10;99.90;;;;;;4993201;28;20125;-90
2022/05/01 02:19:31;;;;;;;16.33;9.43;;;9.10;99.90;;;;;;4977123;28;20035;-90
2022/05/01 02:21:57;;;;;;;15.73;10.45;;;9.10;99.90;;;;;;4992708;28;20042;-90
2022/05/01 02:24:25;;;;;;;16.30;10.65;;;9.10;99.90;;;;;;4993689;28;20038;-90
2022/05/01 02:26:51;;;;;;;15.35;10.10;;;9.00;99.90;;;;;;4976920;28;20038;-90
2022/05/01 02:29:17;;;;;;;15.82;10.65;;;9.10;99.90;;;;;;4993318;28;20207;-90
2022/05/01 02:31:44;;;;;;;17.55;11.15;;;9.00;99.90;;;;;;4992827;28;20549;-90
2022/05/01 02:34:11;;;;;;;15.80;10.48;;;9.00;99.90;;;;;;4993125;28;20420;-89
2022/05/01 02:36:38;;;;;;;17.38;10.93;;;9.00;99.90;;;;;;4992734;28;20038;-90
2022/05/01 02:39:05;;;;;;;16.80;11.13;;;9.00;99.90;;;;;;4976489;28;20090;-90
2022/05/01 02:41:31;;;;;;;16.23;11.13;;;9.00;99.90;;;;;;4992480;28;20049;-90
2022/05/01 02:43:58;;;;;;;17.27;11.70;;;9.00;99.90;;;;;;4976553;28;20034;-90
2022/05/01 02:46:26;;;;;;;15.85;9.68;;;9.10;99.90;;;;;;4993114;28;20128;-90
2022/05/01 02:48:52;;;;;;;17.05;10.95;;;9.10;99.90;;;;;;4976172;28;20385;-90
2022/05/01 02:51:18;;;;;;;14.57;10.25;;;9.00;99.90;;;;;;4975870;28;20042;-90
2022/05/01 02:53:43;;;;;;;15.20;10.40;;;9.00;99.90;;;;;;4992824;28;20046;-90
2022/05/01 02:56:09;;;;;;;17.80;11.73;;;9.00;99.90;;;;;;4976356;28;20047;-90
2022/05/01 02:58:35;;;;;;;15.00;9.82;;;9.00;99.90;;;;;;4992393;28;20038;-90
2022/05/01 03:01:00;;;;;;;16.20;10.35;;;9.00;99.90;;;;;;4976037;28;20048;-90
2022/05/01 03:03:27;;;;;;;16.63;10.95;;;9.00;99.90;;;;;;4992475;28;20042;-90
2022/05/01 03:05:53;;;;;;;17.20;11.05;;;9.00;99.90;;;;;;4992300;28;20518;-90
2022/05/01 03:08:19;;;;;;;18.35;11.18;;;9.00;99.90;;;;;;4976313;28;20106;-90
2022/05/01 03:10:45;;;;;;;17.27;10.75;;;9.00;99.90;;;;;;4992028;28;20085;-90
2022/05/01 03:13:11;;;;;;;17.27;12.07;;;9.00;99.90;;;;;;4976075;28;20061;-90
2022/05/01 03:15:37;;;;;;;17.88;10.82;;;8.90;99.90;;;;;;4976050;28;20092;-90
2022/05/01 03:23:32;;;;;;;16.38;9.68;;;8.90;99.90;;;;;;4992372;28;20408;-91
2022/05/01 03:25:58;;;;;;;18.05;11.73;;;8.90;99.90;;;;;;4992198;28;20525;-91
2022/05/01 03:28:24;;;;;;;15.55;11.00;;;8.80;99.90;;;;;;4992116;28;20469;-90
2022/05/01 03:30:52;;;;;;;19.35;11.35;;;8.80;99.90;;;;;;4991570;28;20042;-90
2022/05/01 03:33:21;;;;;;;15.18;10.40;;;8.80;99.90;;;;;;4975734;28;20117;-91
2022/05/01 03:35:48;;;;;;;17.02;10.63;;;8.70;99.90;;;;;;4991904;28;20096;-91
2022/05/01 03:38:15;;;;;;;14.43;10.35;;;8.70;99.90;;;;;;4992296;28;20514;-91
2022/05/01 03:40:41;;;;;;;17.60;10.55;;;8.70;99.90;;;;;;4991877;28;20491;-91
2022/05/01 03:43:07;;;;;;;16.83;10.73;;;8.70;99.90;;;;;;4975430;28;20488;-90
2022/05/01 03:45:33;;;;;;;17.52;11.63;;;8.80;99.90;;;;;;4975959;28;20034;-91
2022/05/01 03:47:59;;;;;;;17.55;10.98;;;8.80;99.90;;;;;;4991898;28;20543;-90
2022/05/01 03:50:25;;;;;;;17.25;11.35;;;8.80;99.90;;;;;;4991858;28;20045;-91
2022/05/01 03:52:51;;;;;;;17.33;11.77;;;8.80;99.90;;;;;;4986679;28;20403;-91
2022/05/01 03:55:16;;;;;;;18.67;12.45;;;8.80;99.90;;;;;;4991441;28;20038;-91
2022/05/01 03:57:42;;;;;;;20.25;12.82;;;8.80;99.90;;;;;;4991623;28;20101;-90
2022/05/01 04:00:18;;;;;;;19.33;11.98;;;8.80;99.90;;;;;;4975126;28;20061;-90
2022/05/01 04:02:44;;;;;;;18.67;12.23;;;8.80;99.90;;;;;;4991698;28;20048;-90
2022/05/01 04:05:14;;;;;;;19.13;11.10;;;8.80;99.90;;;;;;4991639;28;20561;-90
2022/05/01 04:07:40;;;;;;;16.33;11.05;;;8.80;99.90;;;;;;4991462;28;20093;-90
2022/05/01 04:10:06;;;;;;;17.95;12.40;;;8.80;99.90;;;;;;4975316;28;20035;-90
2022/05/01 04:12:41;;;;;;;16.10;11.40;;;8.70;99.90;;;;;;4974988;28;20442;-90
2022/05/01 04:15:07;;;;;;;17.63;11.18;;;8.80;99.90;;;;;;4991395;28;20093;-90
2022/05/01 04:17:37;;;;;;;17.25;11.45;;;8.80;99.90;;;;;;4991732;28;20034;-90
2022/05/01 04:20:03;;;;;;;17.65;12.80;;;8.70;99.90;;;;;;4991278;28;20138;-90
2022/05/01 04:22:36;;;;;;;17.02;10.80;;;8.80;99.90;;;;;;4991529;28;20113;-91
2022/05/01 04:25:03;;;;;;;16.88;11.55;;;8.80;99.90;;;;;;4991198;28;20524;-90
2022/05/01 04:27:28;;;;;;;18.90;11.55;;;8.70;99.90;;;;;;4991686;28;20054;-90
2022/05/01 04:29:54;;;;;;;17.33;10.75;;;8.80;99.90;;;;;;4997690;28;20038;-90
2022/05/01 04:32:21;;;;;;;16.77;11.45;;;8.70;99.90;;;;;;4978311;28;20125;-89
2022/05/01 04:34:46;;;;;;;17.02;11.68;;;8.70;99.90;;;;;;4994091;28;20047;-90
2022/05/01 04:37:12;;;;;;;17.63;10.90;;;8.70;99.90;;;;;;4992882;28;20177;-90
2022/05/01 04:39:37;;;;;;;19.58;10.98;;;8.80;99.90;;;;;;4996238;28;20522;-90
2022/05/01 04:42:03;;;;;;;17.08;11.48;;;8.80;99.90;;;;;;4995342;28;20046;-89
2022/05/01 04:44:29;;;;;;;18.45;11.95;;;8.80;99.90;;;;;;4995752;28;20049;-89
2022/05/01 04:46:54;;;;;;;18.58;11.68;;;8.80;99.90;;;;;;4995373;28;20054;-90
2022/05/01 04:49:20;;;;;;;16.27;11.18;;;8.80;99.90;;;;;;4994799;28;20042;-90
2022/05/01 04:51:47;;;;;;;18.08;11.25;;;8.80;99.90;;;;;;4978748;28;20057;-89
2022/05/01 04:54:12;;;;;;;16.80;12.13;;;8.70;99.90;;;;;;4978571;28;20050;-89
2022/05/01 04:59:43;;;;;;;17.88;12.50;;;8.80;99.90;;;;;;4920155;29;20148;-90
2022/05/01 05:02:08;;;;;;;18.77;12.38;;;8.80;99.90;;;;;;4919564;29;20102;-90
2022/05/01 05:04:34;;;;;;;18.30;11.55;;;8.80;99.90;;;;;;4947376;28;20423;-90
2022/05/01 05:07:00;;;;;;;18.60;11.70;;;8.80;99.90;;;;;;4994627;28;20046;-90
2022/05/01 05:12:09;;;;;;;17.08;11.27;;;8.90;99.90;;;;;;4994604;28;20047;-90
2022/05/01 05:14:36;;;;;;;18.88;11.55;;;8.90;99.90;;;;;;4978321;28;20503;-90
2022/05/01 05:17:06;;;;;;;18.08;11.75;;;8.90;99.90;;;;;;4993317;28;20049;-89
2022/05/01 05:19:32;;;;;;;15.43;10.93;;;8.90;99.90;;;;;;4994523;28;20035;-89
2022/05/01 05:21:57;;;;;;;17.75;11.30;;;8.90;99.90;;;;;;4994227;28;20051;-90
2022/05/01 05:24:23;;;;;;;18.15;11.52;;;8.90;99.90;;;;;;4994647;28;20057;-89
2022/05/01 05:26:48;;;;;;;19.77;12.88;;;8.90;99.90;;;;;;4978247;28;20034;-90
2022/05/01 05:29:14;;;;;;;19.30;11.88;;;9.00;99.90;;;;;;4994613;28;20038;-89
2022/05/01 05:31:39;;;;;;;16.70;11.48;;;9.00;99.90;;;;;;4993113;28;20038;-90
2022/05/01 05:34:05;;;;;;;17.80;11.60;;;9.00;99.90;;;;;;4992801;28;20073;-89
2022/05/01 05:36:31;;;;;;;19.92;12.40;;;9.00;99.90;;;;;;4994188;28;20120;-90
2022/05/01 05:38:56;;;;;;;20.90;12.65;;;9.10;99.90;;;;;;4993988;28;20112;-89
2022/05/01 05:41:22;;;;;;;19.50;12.68;;;9.10;99.90;;;;;;4977433;28;20089;-90
2022/05/01 05:43:47;;;;;;;16.95;11.93;;;9.10;99.90;;;;;;4993753;28;20043;-90
2022/05/01 05:46:13;;;;;;;18.65;12.77;;;9.10;99.90;;;;;;4993772;28;20053;-90
2022/05/01 05:48:39;;;;;;;17.98;11.48;;;9.10;99.90;;;;;;4993018;28;20463;-90
2022/05/01 05:51:05;;;;;;;18.77;10.95;;;9.10;99.90;;;;;;4993550;28;20125;-90
2022/05/01 05:53:30;;;;;;;15.40;10.60;;;9.20;99.90;;;;;;4993737;28;20038;-90
2022/05/01 05:55:56;;;;;;;18.40;11.55;;;9.20;99.90;;;;;;4977376;28;20093;-90
2022/05/01 05:58:22;;;;;;;19.27;11.25;;;9.20;99.90;;;;;;4993681;28;20046;-89
2022/05/01 06:00:47;;;;;;;22.05;13.27;;;9.20;99.90;;;;;;4993362;28;20524;-89
2022/05/01 06:03:13;;;;;;;19.00;11.88;;;9.20;99.90;;;;;;4993782;28;20552;-89
2022/05/01 06:05:39;;;;;;;16.80;11.27;;;9.20;99.90;;;;;;4993536;28;20487;-88
2022/05/01 06:08:05;;;;;;;18.05;12.07;;;9.20;99.90;;;;;;4993398;28;20042;-89
2022/05/01 06:10:31;;;;;;;18.88;12.30;;;9.30;99.90;;;;;;4993174;28;20129;-90
2022/05/01 06:12:56;;;;;;;19.35;12.23;;;9.30;99.90;;;;;;4992981;28;20055;-90
2022/05/01 06:15:22;;;;;;;19.27;11.88;;;9.30;99.90;;;;;;4992851;28;20133;-90
2022/05/01 06:17:50;;;;;;;20.75;12.05;;;9.30;99.90;;;;;;4993469;28;20084;-90
2022/05/01 06:20:15;;;;;;;20.15;12.30;;;9.30;99.90;;;;;;4992966;28;20046;-90
2022/05/01 06:22:41;;;;;;;18.23;11.55;;;9.40;99.90;;;;;;4993324;28;20042;-90
2022/05/01 06:25:07;;;;;;;17.27;11.65;;;9.40;99.90;;;;;;4993656;28;20053;-91
2022/05/01 06:27:33;;;;;;;18.90;11.90;;;9.40;99.90;;;;;;4993212;28;20050;-91
2022/05/01 06:29:58;;;;;;;17.90;11.65;;;9.50;99.90;;;;;;4992740;28;20046;-90
2022/05/01 06:32:25;;;;;;;17.77;11.45;;;9.50;99.90;;;;;;4993010;28;20038;-90
2022/05/01 06:34:52;;;;;;;19.17;12.02;;;9.50;99.90;;;;;;4992966;28;20050;-90
2022/05/01 06:37:18;;;;;;;17.52;12.20;;;9.60;99.90;;;;;;4993226;28;20044;-90
2022/05/01 06:39:43;;;;;;;17.95;11.15;;;9.60;99.90;;;;;;4976787;28;20499;-90
2022/05/01 06:42:09;;;;;;;20.67;12.32;;;9.60;99.90;;;;;;4992480;28;20046;-90
2022/05/01 06:44:35;;;;;;;16.60;11.23;;;9.70;99.90;;;;;;4992718;28;20046;-91
2022/05/01 06:47:02;;;;;;;17.90;11.38;;;9.70;99.90;;;;;;4976800;28;20056;-91
2022/05/01 06:49:27;;;;;;;17.15;10.95;;;9.70;99.90;;;;;;4976622;28;20038;-91
2022/05/01 06:51:53;;;;;;;21.55;12.40;;;9.80;99.90;;;;;;4992354;28;20069;-90
2022/05/01 06:54:18;;;;;;;18.75;12.98;;;9.80;99.90;;;;;;4992569;28;20408;-91
2022/05/01 06:56:44;;;;;;;16.55;11.02;;;9.90;99.90;;;;;;4992203;28;20091;-91
2022/05/01 06:59:10;;;;;;;18.20;11.15;;;9.90;99.90;;;;;;4976117;28;20081;-90
2022/05/01 07:01:36;;;;;;;18.77;11.88;;;10.00;99.90;;;;;;4991983;28;20372;-90
2022/05/01 07:04:01;;;;;;;17.13;11.13;;;10.00;99.90;;;;;;4976686;28;20165;-91
2022/05/01 07:06:27;;;;;;;19.42;11.00;;;10.10;99.90;;;;;;4992716;28;20529;-91
2022/05/01 07:08:52;;;;;;;16.45;11.20;;;10.20;99.90;;;;;;4992462;28;20038;-91
2022/05/01 07:11:18;;;;;;;20.13;12.50;;;10.20;99.90;;;;;;4992138;28;20088;-91
2022/05/01 07:13:44;;;;;;;16.73;12.07;;;10.30;99.90;;;;;;4992303;28;20042;-91
2022/05/01 07:16:09;;;;;;;15.60;10.98;;;10.30;99.90;;;;;;4976223;28;20038;-91
2022/05/01 07:18:35;;;;;;;16.75;11.73;;;10.40;99.90;;;;;;4975856;28;20496;-91
2022/05/01 07:21:00;;;;;;;17.17;11.32;;;10.40;99.90;;;;;;4991854;28;20459;-90
2022/05/01 07:23:27;;;;;;;15.18;10.88;;;10.50;99.90;;;;;;4992313;28;20126;-91
2022/05/01 07:25:52;;;;;;;15.98;10.75;;;10.50;99.90;;;;;;4976031;28;20495;-91
2022/05/01 07:28:18;;;;;;;18.17;10.52;;;10.60;99.90;;;;;;4975799;28;20045;-90
2022/05/01 07:30:44;;;;;;;16.80;11.93;;;10.60;99.90;;;;;;4991289;28;20174;-90
2022/05/01 07:33:10;;;;;;;17.52;10.30;;;10.60;99.90;;;;;;4991311;28;20046;-91
2022/05/01 07:35:35;;;;;;;16.60;10.98;;;10.70;99.90;;;;;;4975752;28;20079;-90
2022/05/01 07:38:01;;;;;;;16.77;11.30;;;10.70;99.90;;;;;;4975721;28;20065;-89
2022/05/01 07:40:27;;;;;;;14.90;10.13;;;10.70;99.90;;;;;;4981066;28;20125;-90
2022/05/01 07:42:53;;;;;;;19.35;11.63;;;10.80;99.90;;;;;;4990910;28;20149;-89
2022/05/01 07:45:19;;;;;;;19.30;13.15;;;10.90;99.90;;;;;;4991405;28;20419;-91
2022/05/01 07:47:45;;;;;;;17.15;11.93;;;10.90;99.90;;;;;;4991417;28;20420;-90
2022/05/01 07:50:10;;;;;;;18.17;12.07;;;11.00;99.90;;;;;;4991230;28;20696;-91
2022/05/01 07:52:36;;;;;;;18.02;12.20;;;11.00;99.90;;;;;;4991374;28;20131;-91
2022/05/01 07:55:03;;;;;;;17.58;12.25;;;11.10;99.90;;;;;;4974923;28;20039;-91
2022/05/01 07:57:29;;;;;;;16.42;11.60;;;11.10;99.90;;;;;;4991236;28;20045;-90
2022/05/01 07:59:55;;;;;;;14.32;11.15;;;11.10;99.90;;;;;;4974820;28;20030;-91
2022/05/01 08:02:21;;;;;;;17.50;11.98;;;11.20;99.90;;;;;;4975318;28;20069;-91
2022/05/01 08:04:48;;;;;;;16.77;11.32;;;11.20;99.90;;;;;;4991373;28;20042;-91
2022/05/01 08:07:14;;;;;;;15.32;11.73;;;11.30;99.90;;;;;;4974627;28;20046;-91
2022/05/01 08:09:40;;;;;;;16.85;11.25;;;11.40;99.90;;;;;;4989712;28;20595;-91
2022/05/01 08:12:06;;;;;;;15.25;13.65;;;11.40;99.90;;;;;;4989830;28;20519;-91
2022/05/01 08:14:32;;;;;;;14.80;11.00;;;11.60;99.90;;;;;;4991305;28;20049;-91
2022/05/01 08:16:57;;;;;;;15.60;10.35;;;11.60;99.90;;;;;;4991262;28;20053;-91
2022/05/01 08:22:07;;;;;;;16.85;13.48;;;11.70;99.90;;;;;;4991277;28;20042;-91
2022/05/01 08:24:34;;;;;;;16.35;10.90;;;11.80;99.90;;;;;;4975045;28;20452;-91
2022/05/01 08:27:07;;;;;;;16.35;11.55;;;11.90;99.90;;;;;;4991410;28;20519;-91
2022/05/01 08:29:39;;;;;;;16.00;12.02;;;11.90;99.90;;;;;;4991262;28;20046;-91
2022/05/01 08:32:06;;;;;;;15.00;9.65;;;12.00;99.90;;;;;;4990929;28;20689;-91
2022/05/01 08:34:31;;;;;;;15.00;10.48;;;12.10;99.90;;;;;;5023721;28;20046;-91
2022/05/01 08:36:57;;;;;;;14.38;8.77;;;12.20;99.90;;;;;;4994612;28;20027;-90
2022/05/01 08:39:23;;;;;;;14.55;10.18;;;12.20;99.90;;;;;;5001782;28;20042;-90
2022/05/01 08:41:49;;;;;;;13.77;8.63;;;12.30;99.90;;;;;;4993855;28;20069;-90
2022/05/01 08:44:14;;;;;;;12.20;8.60;;;12.40;99.90;;;;;;4980212;28;20097;-90
2022/05/01 08:47:13;;;;;;;14.02;8.82;;;12.50;99.90;;;;;;4990219;28;20046;-90
2022/05/01 08:49:40;;;;;;;13.98;8.63;;;12.60;99.90;;;;;;4964474;28;20054;-90
2022/05/01 08:52:07;;;;;;;12.77;8.38;;;12.60;99.90;;;;;;4973238;28;20042;-91
2022/05/01 08:54:33;;;;;;;14.98;8.88;;;12.70;99.90;;;;;;4973943;28;20503;-91
2022/05/01 08:57:00;;;;;;;13.48;8.93;;;12.70;99.90;;;;;;4989716;28;20049;-90
2022/05/01 08:59:27;;;;;;;11.95;8.30;;;12.70;99.90;;;;;;4990139;28;20093;-91
2022/05/01 09:01:53;;;;;;;12.80;10.85;;;12.80;99.90;;;;;;4973389;28;20534;-91
2022/05/01 09:04:19;;;;;;;12.65;8.60;;;13.00;99.90;;;;;;4973856;28;20042;-91
2022/05/01 09:06:46;;;;;;;12.93;8.15;;;13.00;99.90;;;;;;4990769;28;20109;-91
2022/05/01 09:09:22;;;;;;;13.10;8.65;;;13.00;99.40;;;;;;4990811;28;20422;-91
2022/05/01 09:14:35;;;;;;;14.05;8.90;;;13.10;99.60;;;;;;4990459;28;20050;-91
2022/05/01 09:17:08;;;;;;;12.80;8.75;;;13.20;99.80;;;;;;4974194;28;20122;-90
2022/05/01 09:19:33;;;;;;;13.57;8.63;;;13.30;99.80;;;;;;4974591;28;20112;-91
2022/05/01 09:22:00;;;;;;;12.82;8.30;;;13.40;99.00;;;;;;4990310;28;20431;-91
2022/05/01 09:24:27;;;;;;;13.20;8.55;;;13.50;98.70;;;;;;4992535;28;20091;-91
2022/05/01 09:26:53;;;;;;;13.05;8.05;;;13.60;98.20;;;;;;4977743;28;20054;-90
2022/05/01 09:29:23;;;;;;;13.60;10.68;;;13.60;96.70;;;;;;4994031;28;20149;-90
2022/05/01 09:31:52;;;;;;;11.55;8.50;;;13.60;97.90;;;;;;4993511;28;20499;-90
2022/05/01 09:34:32;;;;;;;12.23;8.18;;;13.70;98.50;;;;;;4993818;28;20096;-91
2022/05/01 09:37:02;;;;;;;10.90;8.07;;;13.80;98.10;;;;;;4993620;28;20030;-91
2022/05/01 09:39:32;;;;;;;12.13;7.97;;;13.90;96.60;;;;;;4993672;28;20066;-91
2022/05/01 09:42:16;;;;;;;11.18;8.52;;;13.90;95.50;;;;;;4993370;28;20121;-91
2022/05/01 09:44:42;;;;;;;12.23;8.38;;;14.00;94.90;;;;;;4977054;28;20038;-90
2022/05/01 09:47:08;;;;;;;11.15;7.55;;;14.00;93.90;;;;;;4977746;28;20085;-90
2022/05/01 09:49:50;;;;;;;13.10;7.70;;;13.80;94.20;;;;;;4993541;28;20042;-90
2022/05/01 09:52:16;;;;;;;10.20;5.90;;;13.70;93.00;;;;;;4977502;28;20053;-90
2022/05/01 09:55:00;;;;;;;11.40;7.93;;;13.60;93.80;;;;;;4993770;28;20130;-90
2022/05/01 09:57:25;;;;;;;11.82;7.38;;;13.60;93.30;;;;;;4993421;28;20085;-90
2022/05/01 09:59:51;;;;;;;10.00;6.63;;;13.60;93.90;;;;;;4977209;28;20031;-91
2022/05/01 10:02:28;;;;;;;10.15;6.97;;;13.70;94.10;;;;;;4977022;28;20042;-90
2022/05/01 10:04:56;;;;;;;11.65;6.50;;;13.70;93.10;;;;;;4977067;28;20057;-91
2022/05/01 10:07:24;;;;;;;12.02;6.78;;;13.80;92.80;;;;;;4993237;28;20078;-90
2022/05/01 10:09:52;;;;;;;11.77;6.85;;;13.80;92.20;;;;;;4994445;28;20042;-89
2022/05/01 10:12:19;;;;;;;10.68;6.93;;;13.90;91.90;;;;;;4992684;28;20038;-89
2022/05/01 10:14:45;;;;;;;10.43;5.85;;;13.90;92.00;;;;;;4993100;28;20094;-90
2022/05/01 10:17:10;;;;;;;11.38;6.63;;;14.10;91.70;;;;;;4992797;28;20804;-89
2022/05/01 10:19:36;;;;;;;10.85;6.90;;;14.30;91.40;;;;;;4993142;28;20039;-90
2022/05/01 10:22:03;;;;;;;10.68;6.97;;;14.50;91.90;;;;;;4992819;28;20493;-90
2022/05/01 10:24:29;;;;;;;10.38;6.15;;;14.60;91.80;;;;;;4993121;28;20181;-90
2022/05/01 10:26:59;;;;;;;9.63;6.60;;;14.70;88.30;;;;;;4976491;28;20049;-90
2022/05/01 10:32:50;;;;;;;12.30;6.88;;;15.00;88.40;;;;;;4992287;28;20504;-90
2022/05/01 10:35:45;;;;;;;10.25;6.30;;;14.90;83.00;;;;;;4991913;28;20061;-90
2022/05/01 10:38:38;;;;;;;10.43;7.13;;;14.90;86.90;;;;;;4992572;28;20507;-90
2022/05/01 10:41:05;;;;;;;11.48;7.53;;;15.10;87.40;;;;;;4992182;28;20527;-90
2022/05/01 10:43:33;;;;;;;11.68;6.57;;;15.30;82.00;;;;;;4992187;28;20073;-91
2022/05/01 10:46:21;;;;;;;12.02;6.47;;;15.40;81.70;;;;;;4992173;28;20517;-90
2022/05/01 10:48:47;;;;;;;9.68;6.15;;;15.60;79.50;;;;;;4992192;28;20537;-90
2022/05/01 10:51:35;;;;;;;8.35;3.75;;;15.70;76.30;;;;;;4975888;28;20129;-89
2022/05/01 10:54:10;;;;;;;7.60;3.70;;;15.60;67.30;;;;;;4992290;28;20089;-90
2022/05/01 10:56:40;;;;;;;7.10;3.58;;;15.60;64.70;;;;;;4991667;28;20038;-90
2022/05/01 10:59:33;;;;;;;8.63;4.53;;;15.60;65.10;;;;;;5001455;28;20037;-90
2022/05/01 11:02:23;;;;;;;10.18;5.22;;;15.40;65.00;;;;;;5011187;28;20030;-90
2022/05/01 11:04:49;;;;;;;7.82;4.18;;;15.30;64.20;;;;;;5018074;28;20057;-91
2022/05/01 11:07:17;;;;;;;9.45;4.18;;;15.40;65.30;;;;;;5018310;28;20133;-90
2022/05/01 11:09:45;;;;;;;7.72;3.13;;;15.50;64.20;;;;;;5018374;28;20022;-91
2022/05/01 11:12:13;;;;;;;7.47;3.80;;;15.60;64.80;;;;;;5018286;28;20023;-91
2022/05/01 11:15:08;;;;;;;9.88;3.67;;;15.90;66.10;;;;;;4996541;28;20077;-91
2022/05/01 11:17:39;;;;;;;8.85;3.83;;;16.20;63.70;;;;;;4975692;28;20145;-91
2022/05/01 11:20:23;;;;;;;7.50;3.55;;;16.40;64.00;;;;;;4992115;28;20052;-91
2022/05/01 11:22:49;;;;;;;8.13;3.47;;;16.60;61.70;;;;;;4991960;28;20039;-91
2022/05/01 11:25:32;;;;;;;7.50;3.30;;;16.80;60.80;;;;;;4991457;28;20105;-91
2022/05/01 11:27:58;;;;;;;8.68;3.40;;;17.00;61.10;;;;;;4991636;28;20162;-91
2022/05/01 11:30:26;;;;;;;8.35;3.30;;;17.00;59.50;;;;;;4991593;28;20042;-91
2022/05/01 11:33:08;;;;;;;9.00;4.07;;;16.90;58.90;;;;;;4991691;28;20133;-91
2022/05/01 11:36:00;;;;;;;8.18;3.20;;;16.80;58.50;;;;;;4991625;28;20069;-91
2022/05/01 11:38:38;;;;;;;7.40;3.20;;;16.70;60.30;;;;;;4977810;28;20074;-91
2022/05/01 11:41:04;;;;;;;8.23;3.40;;;16.50;57.70;;;;;;4971796;28;20035;-92
2022/05/01 11:43:31;;;;;;;7.10;3.08;;;16.50;57.70;;;;;;4972204;28;20509;-90
2022/05/01 11:46:02;;;;;;;10.57;3.10;;;16.70;58.50;;;;;;4971631;28;20098;-91
2022/05/01 11:48:29;;;;;;;7.22;2.95;;;16.90;58.00;;;;;;4971287;28;20121;-91
2022/05/01 11:50:58;;;;;;;8.00;3.22;;;17.20;56.50;;;;;;4971250;28;20065;-91
2022/05/01 11:53:25;;;;;;;6.43;3.10;;;17.40;54.80;;;;;;4971561;28;20051;-91
2022/05/01 12:04:27;;;;;;;7.38;3.20;;;18.10;53.30;;;;;;4991208;28;20507;-91
2022/05/01 12:06:58;;;;;;;7.25;3.30;;;18.30;53.60;;;;;;4991147;28;20535;-91
2022/05/01 12:09:26;;;;;;;6.85;3.08;;;18.20;53.60;;;;;;5026362;28;20059;-92
2022/05/01 12:11:51;;;;;;;8.77;3.60;;;18.00;53.40;;;;;;5010440;28;20069;-91
2022/05/01 12:14:17;;;;;;;7.45;3.35;;;17.80;52.20;;;;;;5010340;28;20491;-91
2022/05/01 12:16:44;;;;;;;7.80;3.45;;;17.70;52.70;;;;;;5010676;28;20385;-91
2022/05/01 12:19:10;;;;;;;7.05;3.58;;;17.50;53.40;;;;;;5010397;28;20045;-91
2022/05/01 12:21:36;;;;;;;7.57;3.58;;;17.60;53.90;;;;;;4994318;28;20376;-91
2022/05/01 12:24:04;;;;;;;8.65;3.50;;;17.70;53.60;;;;;;5010514;28;20037;-92
2022/05/01 12:26:31;;;;;;;6.43;3.08;;;17.50;51.30;;;;;;5010750;28;20054;-91
2022/05/01 12:28:57;;;;;;;6.93;3.40;;;17.40;52.90;;;;;;5010672;28;20532;-91
2022/05/01 12:31:23;;;;;;;7.95;3.60;;;17.30;53.10;;;;;;5010318;28;20045;-91
2022/05/01 12:33:52;;;;;;;8.00;4.07;;;17.20;52.70;;;;;;5010302;28;20045;-92
2022/05/01 12:36:27;;;;;;;7.40;3.80;;;17.40;53.70;;;;;;5010601;28;20088;-92
2022/05/01 12:39:04;;;;;;;13.82;3.72;;;17.50;54.50;;;;;;5010576;28;20037;-91
2022/05/01 12:44:14;;;;;;;7.03;3.25;;;17.60;53.10;;;;;;5010294;28;20496;-92
2022/05/01 12:46:51;;;;;;;7.13;3.38;;;17.40;52.90;;;;;;5010592;28;20038;-91
2022/05/01 12:49:28;;;;;;;7.80;3.13;;;17.30;51.80;;;;;;5010288;28;20407;-91
2022/05/01 12:51:54;;;;;;;6.43;3.15;;;16.90;51.50;;;;;;5010212;28;20113;-91
2022/05/01 12:54:19;;;;;;;7.97;3.22;;;16.70;50.40;;;;;;5010345;28;20154;-91
2022/05/01 12:56:45;;;;;;;7.07;2.80;;;16.50;50.40;;;;;;4993977;28;20038;-91
2022/05/01 12:59:30;;;;;;;6.28;3.10;;;16.40;50.90;;;;;;5012163;28;20046;-91
2022/05/01 13:01:58;;;;;;;7.40;2.90;;;16.50;52.30;;;;;;5013214;28;20041;-91
2022/05/01 13:04:25;;;;;;;6.72;2.97;;;16.60;51.50;;;;;;5014281;28;20188;-91
2022/05/01 13:06:52;;;;;;;7.32;2.80;;;16.70;52.50;;;;;;5014032;28;20057;-91
2022/05/01 13:09:17;;;;;;;8.00;3.20;;;16.80;52.80;;;;;;5014054;28;20089;-90
2022/05/01 13:12:04;;;;;;;6.95;3.45;;;16.90;54.00;;;;;;4977841;28;20042;-90
2022/05/01 13:14:33;;;;;;;8.82;3.30;;;17.00;53.80;;;;;;4993989;28;20046;-91
2022/05/01 13:17:15;;;;;;;6.32;3.00;;;16.90;53.50;;;;;;4993775;28;20038;-90
2022/05/01 13:19:45;;;;;;;6.85;2.70;;;16.80;54.60;;;;;;4993969;28;20045;-90
2022/05/01 13:22:11;;;;;;;7.50;2.97;;;16.70;54.20;;;;;;4993544;28;20120;-91
2022/05/01 13:24:39;;;;;;;6.47;2.90;;;16.70;53.90;;;;;;4993662;28;20093;-91
2022/05/01 13:27:07;;;;;;;7.68;3.22;;;16.70;53.30;;;;;;4993818;28;20051;-91